createdAt,value
2017-06-30T00:00:09.473Z,0
2017-06-30T00:00:30.145Z,0
2017-06-30T00:00:50.819Z,0
2017-06-30T00:01:11.975Z,0
2017-06-30T00:01:32.806Z,0
2017-06-30T00:01:53.512Z,0
2017-06-30T00:02:14.173Z,0
2017-06-30T00:02:34.841Z,0
2017-06-30T00:02:55.507Z,0
2017-06-30T00:03:16.170Z,0
2017-06-30T00:03:37.481Z,0
2017-06-30T00:03:58.158Z,0
2017-06-30T00:04:18.823Z,0
2017-06-30T00:04:39.541Z,0
2017-06-30T00:05:00.224Z,0
2017-06-30T00:05:21.496Z,0
2017-06-30T00:05:42.164Z,0
2017-06-30T00:06:02.833Z,0
2017-06-30T00:06:23.491Z,0
2017-06-30T00:06:44.153Z,0
2017-06-30T00:07:04.812Z,0
2017-06-30T00:07:25.507Z,0
2017-06-30T00:07:46.176Z,0
2017-06-30T00:08:06.836Z,0
2017-06-30T00:08:27.523Z,0
2017-06-30T00:08:48.173Z,0
2017-06-30T00:09:08.846Z,0
2017-06-30T00:09:29.488Z,0
2017-06-30T00:09:50.146Z,0
2017-06-30T00:10:10.795Z,0
2017-06-30T00:10:31.442Z,0
2017-06-30T00:10:52.096Z,0
2017-06-30T00:11:12.747Z,0
2017-06-30T00:11:33.395Z,0
2017-06-30T00:11:54.057Z,0
2017-06-30T00:12:14.725Z,0
2017-06-30T00:12:36.142Z,0
2017-06-30T00:12:56.817Z,0
2017-06-30T00:13:17.461Z,0
2017-06-30T00:13:38.146Z,0
2017-06-30T00:13:58.795Z,0
2017-06-30T00:14:19.450Z,0
2017-06-30T00:14:40.106Z,0
2017-06-30T00:15:00.776Z,0
2017-06-30T00:15:21.459Z,0
2017-06-30T00:15:42.974Z,0
2017-06-30T00:16:03.638Z,0
2017-06-30T00:16:24.290Z,0
2017-06-30T00:16:44.995Z,0
2017-06-30T00:17:05.640Z,0
2017-06-30T00:17:26.884Z,0
2017-06-30T00:17:47.592Z,0
2017-06-30T00:18:08.261Z,0
2017-06-30T00:18:28.916Z,0
2017-06-30T00:18:49.600Z,0
2017-06-30T00:19:10.275Z,0
2017-06-30T00:19:31.512Z,0
2017-06-30T00:19:52.209Z,0
2017-06-30T00:20:12.851Z,0
2017-06-30T00:20:33.529Z,0
2017-06-30T00:20:54.214Z,0
2017-06-30T00:21:14.872Z,0
2017-06-30T00:21:35.528Z,0
2017-06-30T00:21:57.484Z,0
2017-06-30T00:22:18.191Z,0
2017-06-30T00:22:38.844Z,0
2017-06-30T00:22:59.497Z,0
2017-06-30T00:23:20.173Z,0
2017-06-30T00:23:41.394Z,0
2017-06-30T00:24:02.893Z,0
2017-06-30T00:24:24.517Z,0
2017-06-30T00:24:45.162Z,0
2017-06-30T00:25:06.433Z,0
2017-06-30T00:25:27.096Z,0
2017-06-30T00:25:47.819Z,0
2017-06-30T00:26:08.521Z,0
2017-06-30T00:26:29.223Z,0
2017-06-30T00:26:49.875Z,0
2017-06-30T00:27:10.525Z,0
2017-06-30T00:27:31.898Z,0
2017-06-30T00:27:52.549Z,0
2017-06-30T00:28:13.209Z,0
2017-06-30T00:28:33.856Z,0
2017-06-30T00:28:54.580Z,0
2017-06-30T00:29:15.224Z,0
2017-06-30T00:29:35.882Z,0
2017-06-30T00:29:56.568Z,0
2017-06-30T00:30:18.079Z,0
2017-06-30T00:30:38.738Z,0
2017-06-30T00:31:01.903Z,0
2017-06-30T00:31:22.570Z,0
2017-06-30T00:31:43.230Z,0
2017-06-30T00:32:03.880Z,0
2017-06-30T00:32:24.539Z,0
2017-06-30T00:32:45.223Z,0
2017-06-30T00:33:06.515Z,0
2017-06-30T00:33:27.156Z,0
2017-06-30T00:33:47.818Z,0
2017-06-30T00:34:08.494Z,0
2017-06-30T00:34:30.013Z,0
2017-06-30T00:34:50.662Z,0
2017-06-30T00:35:11.317Z,0
2017-06-30T00:35:32.882Z,0
2017-06-30T00:35:54.405Z,0
2017-06-30T00:36:15.891Z,0
2017-06-30T00:36:36.547Z,0
2017-06-30T00:36:57.210Z,0
2017-06-30T00:37:17.848Z,0
2017-06-30T00:37:39.511Z,0
2017-06-30T00:38:00.175Z,0
2017-06-30T00:38:20.838Z,0
2017-06-30T00:38:41.498Z,0
2017-06-30T00:39:02.150Z,0
2017-06-30T00:39:22.800Z,0
2017-06-30T00:39:43.452Z,0
2017-06-30T00:40:04.142Z,0
2017-06-30T00:40:24.796Z,0
2017-06-30T00:40:45.452Z,0
2017-06-30T00:41:06.179Z,0
2017-06-30T00:41:26.875Z,0
2017-06-30T00:41:47.564Z,0
2017-06-30T00:42:08.237Z,0
2017-06-30T00:42:28.883Z,0
2017-06-30T00:42:49.581Z,0
2017-06-30T00:43:10.969Z,0
2017-06-30T00:43:31.622Z,0
2017-06-30T00:43:52.268Z,0
2017-06-30T00:44:12.955Z,0
2017-06-30T00:44:34.502Z,0
2017-06-30T00:44:55.168Z,0
2017-06-30T00:45:15.842Z,0
2017-06-30T00:45:36.536Z,0
2017-06-30T00:45:57.234Z,0
2017-06-30T00:46:18.507Z,0
2017-06-30T00:46:40.009Z,0
2017-06-30T00:47:00.663Z,0
2017-06-30T00:47:21.309Z,0
2017-06-30T00:47:41.957Z,0
2017-06-30T00:48:03.916Z,0
2017-06-30T00:48:26.012Z,0
2017-06-30T00:48:46.684Z,0
2017-06-30T00:49:07.345Z,0
2017-06-30T00:49:27.985Z,0
2017-06-30T00:49:48.625Z,0
2017-06-30T00:50:09.276Z,0
2017-06-30T00:50:29.970Z,0
2017-06-30T00:50:50.629Z,0
2017-06-30T00:51:11.301Z,0
2017-06-30T00:51:31.949Z,0
2017-06-30T00:51:52.591Z,0
2017-06-30T00:52:13.229Z,0
2017-06-30T00:52:33.881Z,0
2017-06-30T00:52:55.423Z,0
2017-06-30T00:53:16.060Z,0
2017-06-30T00:53:37.917Z,0
2017-06-30T00:53:58.595Z,0
2017-06-30T00:54:19.245Z,0
2017-06-30T00:54:39.948Z,0
2017-06-30T00:55:00.673Z,0
2017-06-30T00:55:21.340Z,0
2017-06-30T00:55:42.000Z,0
2017-06-30T00:56:02.675Z,0
2017-06-30T00:56:23.318Z,0
2017-06-30T00:56:43.973Z,0
2017-06-30T00:57:05.406Z,0
2017-06-30T00:57:26.058Z,0
2017-06-30T00:57:46.703Z,0
2017-06-30T00:58:07.345Z,0
2017-06-30T00:58:27.997Z,0
2017-06-30T00:58:48.669Z,0
2017-06-30T00:59:10.002Z,0
2017-06-30T00:59:30.657Z,0
2017-06-30T00:59:51.341Z,0
2017-06-30T01:00:12.019Z,0
2017-06-30T01:00:32.664Z,0
2017-06-30T01:00:53.339Z,0
2017-06-30T01:01:14.028Z,0
2017-06-30T01:01:34.687Z,0
2017-06-30T01:01:56.923Z,0
2017-06-30T01:02:17.638Z,0
2017-06-30T01:02:38.292Z,0
2017-06-30T01:02:58.940Z,0
2017-06-30T01:03:21.497Z,0
2017-06-30T01:03:42.154Z,0
2017-06-30T01:04:02.810Z,0
2017-06-30T01:04:23.452Z,0
2017-06-30T01:04:44.142Z,0
2017-06-30T01:05:04.798Z,0
2017-06-30T01:05:26.045Z,0
2017-06-30T01:05:46.708Z,0
2017-06-30T01:06:07.353Z,0
2017-06-30T01:06:27.993Z,0
2017-06-30T01:06:48.650Z,0
2017-06-30T01:07:10.020Z,0
2017-06-30T01:07:31.426Z,0
2017-06-30T01:07:52.082Z,0
2017-06-30T01:08:12.762Z,0
2017-06-30T01:08:33.435Z,0
2017-06-30T01:08:54.104Z,0
2017-06-30T01:09:14.771Z,0
2017-06-30T01:09:35.466Z,0
2017-06-30T01:09:56.138Z,0
2017-06-30T01:10:16.790Z,0
2017-06-30T01:10:37.562Z,0
2017-06-30T01:10:58.992Z,0
2017-06-30T01:11:19.669Z,0
2017-06-30T01:11:40.312Z,0
2017-06-30T01:12:00.958Z,0
2017-06-30T01:12:21.648Z,0
2017-06-30T01:12:42.289Z,0
2017-06-30T01:13:02.938Z,0
2017-06-30T01:13:23.621Z,0
2017-06-30T01:13:44.295Z,0
2017-06-30T01:14:04.949Z,0
2017-06-30T01:14:25.622Z,0
2017-06-30T01:14:46.266Z,0
2017-06-30T01:15:07.432Z,0
2017-06-30T01:15:28.922Z,0
2017-06-30T01:15:49.572Z,0
2017-06-30T01:16:10.974Z,0
2017-06-30T01:16:31.636Z,0
2017-06-30T01:16:52.289Z,0
2017-06-30T01:17:12.939Z,0
2017-06-30T01:17:33.622Z,0
2017-06-30T01:17:54.307Z,0
2017-06-30T01:18:15.930Z,0
2017-06-30T01:18:36.614Z,0
2017-06-30T01:18:57.256Z,0
2017-06-30T01:19:17.907Z,0
2017-06-30T01:19:38.552Z,0
2017-06-30T01:19:59.185Z,0
2017-06-30T01:20:19.855Z,0
2017-06-30T01:20:40.561Z,0
2017-06-30T01:21:01.238Z,0
2017-06-30T01:21:22.553Z,0
2017-06-30T01:21:43.220Z,0
2017-06-30T01:22:04.430Z,0
2017-06-30T01:22:26.082Z,0
2017-06-30T01:22:47.437Z,0
2017-06-30T01:23:08.095Z,0
2017-06-30T01:23:28.761Z,0
2017-06-30T01:23:49.399Z,0
2017-06-30T01:24:10.045Z,0
2017-06-30T01:24:30.730Z,0
2017-06-30T01:24:51.421Z,0
2017-06-30T01:25:12.071Z,0
2017-06-30T01:25:32.748Z,0
2017-06-30T01:25:53.404Z,0
2017-06-30T01:26:14.045Z,0
2017-06-30T01:26:35.430Z,0
2017-06-30T01:26:56.109Z,0
2017-06-30T01:27:16.784Z,0
2017-06-30T01:27:37.418Z,0
2017-06-30T01:27:59.051Z,0
2017-06-30T01:28:20.540Z,0
2017-06-30T01:28:41.225Z,0
2017-06-30T01:29:01.898Z,0
2017-06-30T01:29:22.559Z,0
2017-06-30T01:29:43.239Z,0
2017-06-30T01:30:03.921Z,0
2017-06-30T01:30:24.571Z,0
2017-06-30T01:30:45.267Z,0
2017-06-30T01:31:05.923Z,0
2017-06-30T01:31:26.596Z,0
2017-06-30T01:31:47.269Z,0
2017-06-30T01:32:07.927Z,0
2017-06-30T01:32:29.540Z,0
2017-06-30T01:32:50.202Z,0
2017-06-30T01:33:10.866Z,0
2017-06-30T01:33:31.497Z,0
2017-06-30T01:33:52.235Z,0
2017-06-30T01:34:12.882Z,0
2017-06-30T01:34:33.546Z,0
2017-06-30T01:34:54.236Z,0
2017-06-30T01:35:14.916Z,0
2017-06-30T01:35:35.561Z,0
2017-06-30T01:35:57.009Z,0
2017-06-30T01:36:18.545Z,0
2017-06-30T01:36:39.201Z,0
2017-06-30T01:36:59.873Z,0
2017-06-30T01:37:20.544Z,0
2017-06-30T01:37:41.211Z,0
2017-06-30T01:38:01.868Z,0
2017-06-30T01:38:22.549Z,0
2017-06-30T01:38:43.190Z,0
2017-06-30T01:39:03.878Z,0
2017-06-30T01:39:24.540Z,0
2017-06-30T01:39:46.053Z,0
2017-06-30T01:40:06.714Z,0
2017-06-30T01:40:27.374Z,0
2017-06-30T01:40:48.062Z,0
2017-06-30T01:41:08.702Z,0
2017-06-30T01:41:29.361Z,0
2017-06-30T01:41:50.029Z,0
2017-06-30T01:42:10.676Z,0
2017-06-30T01:42:31.319Z,0
2017-06-30T01:42:51.975Z,0
2017-06-30T01:43:12.623Z,0
2017-06-30T01:43:33.338Z,0
2017-06-30T01:43:53.994Z,0
2017-06-30T01:44:14.693Z,0
2017-06-30T01:44:35.360Z,0
2017-06-30T01:44:56.040Z,0
2017-06-30T01:45:16.712Z,0
2017-06-30T01:45:37.368Z,0
2017-06-30T01:45:58.026Z,0
2017-06-30T01:46:18.773Z,0
2017-06-30T01:46:40.051Z,0
2017-06-30T01:47:00.686Z,0
2017-06-30T01:47:21.320Z,0
2017-06-30T01:47:42.030Z,0
2017-06-30T01:48:02.700Z,0
2017-06-30T01:48:23.381Z,0
2017-06-30T01:48:44.039Z,0
2017-06-30T01:49:04.719Z,0
2017-06-30T01:49:25.377Z,0
2017-06-30T01:49:46.035Z,0
2017-06-30T01:50:06.695Z,0
2017-06-30T01:50:27.341Z,0
2017-06-30T01:50:48.003Z,0
2017-06-30T01:51:08.649Z,0
2017-06-30T01:51:29.329Z,0
2017-06-30T01:51:50.962Z,0
2017-06-30T01:52:11.647Z,0
2017-06-30T01:52:32.288Z,0
2017-06-30T01:52:52.982Z,0
2017-06-30T01:53:14.546Z,0
2017-06-30T01:53:35.969Z,0
2017-06-30T01:53:56.623Z,0
2017-06-30T01:54:17.280Z,0
2017-06-30T01:54:38.955Z,0
2017-06-30T01:55:00.550Z,0
2017-06-30T01:55:21.205Z,0
2017-06-30T01:55:42.636Z,0
2017-06-30T01:56:03.274Z,0
2017-06-30T01:56:23.943Z,0
2017-06-30T01:56:44.600Z,0
2017-06-30T01:57:07.022Z,0
2017-06-30T01:57:27.685Z,0
2017-06-30T01:57:48.343Z,0
2017-06-30T01:58:09.008Z,0
2017-06-30T01:58:29.659Z,0
2017-06-30T01:58:50.323Z,0
2017-06-30T01:59:10.976Z,0
2017-06-30T01:59:31.624Z,0
2017-06-30T01:59:52.254Z,0
2017-06-30T02:00:12.889Z,0
2017-06-30T02:00:33.562Z,0
2017-06-30T02:00:54.222Z,0
2017-06-30T02:01:14.875Z,0
2017-06-30T02:01:35.597Z,0
2017-06-30T02:01:56.246Z,0
2017-06-30T02:02:16.904Z,0
2017-06-30T02:02:37.553Z,0
2017-06-30T02:02:58.264Z,0
2017-06-30T02:03:19.568Z,0
2017-06-30T02:03:40.238Z,0
2017-06-30T02:04:00.918Z,0
2017-06-30T02:04:21.586Z,0
2017-06-30T02:04:42.239Z,0
2017-06-30T02:05:02.885Z,0
2017-06-30T02:05:23.591Z,0
2017-06-30T02:05:44.245Z,0
2017-06-30T02:06:04.891Z,0
2017-06-30T02:06:25.543Z,0
2017-06-30T02:06:46.197Z,0
2017-06-30T02:07:06.852Z,0
2017-06-30T02:07:27.503Z,0
2017-06-30T02:07:48.187Z,0
2017-06-30T02:08:08.857Z,0
2017-06-30T02:08:29.530Z,0
2017-06-30T02:08:50.176Z,0
2017-06-30T02:09:10.830Z,0
2017-06-30T02:09:31.512Z,0
2017-06-30T02:09:52.215Z,0
2017-06-30T02:10:12.888Z,0
2017-06-30T02:10:33.538Z,0
2017-06-30T02:10:54.224Z,0
2017-06-30T02:11:15.613Z,0
2017-06-30T02:11:37.057Z,0
2017-06-30T02:11:57.729Z,0
2017-06-30T02:12:18.368Z,0
2017-06-30T02:12:39.006Z,0
2017-06-30T02:13:00.489Z,0
2017-06-30T02:13:21.149Z,0
2017-06-30T02:13:41.804Z,0
2017-06-30T02:14:02.460Z,0
2017-06-30T02:14:23.107Z,0
2017-06-30T02:14:43.766Z,0
2017-06-30T02:15:04.951Z,0
2017-06-30T02:15:25.594Z,0
2017-06-30T02:15:47.060Z,0
2017-06-30T02:16:09.473Z,0
2017-06-30T02:16:31.084Z,0
2017-06-30T02:16:51.763Z,0
2017-06-30T02:17:13.085Z,0
2017-06-30T02:17:33.727Z,0
2017-06-30T02:17:54.367Z,0
2017-06-30T02:18:15.016Z,0
2017-06-30T02:18:35.647Z,0
2017-06-30T02:18:56.294Z,0
2017-06-30T02:19:17.564Z,0
2017-06-30T02:19:38.233Z,0
2017-06-30T02:19:58.897Z,0
2017-06-30T02:20:19.545Z,0
2017-06-30T02:20:40.192Z,0
2017-06-30T02:21:01.562Z,0
2017-06-30T02:21:22.025Z,0
2017-06-30T02:21:42.907Z,0
2017-06-30T02:22:05.828Z,0
2017-06-30T02:22:27.471Z,0
2017-06-30T02:22:48.149Z,0
2017-06-30T02:23:08.785Z,0
2017-06-30T02:23:29.495Z,0
2017-06-30T02:23:51.000Z,0
2017-06-30T02:24:11.667Z,0
2017-06-30T02:24:32.319Z,0
2017-06-30T02:24:52.984Z,0
2017-06-30T02:25:13.628Z,0
2017-06-30T02:25:34.278Z,0
2017-06-30T02:25:54.950Z,0
2017-06-30T02:26:15.606Z,0
2017-06-30T02:26:37.141Z,0
2017-06-30T02:26:57.795Z,0
2017-06-30T02:27:18.478Z,0
2017-06-30T02:27:39.139Z,0
2017-06-30T02:27:59.798Z,0
2017-06-30T02:28:20.443Z,0
2017-06-30T02:28:42.005Z,0
2017-06-30T02:29:02.661Z,0
2017-06-30T02:29:23.314Z,0
2017-06-30T02:29:44.584Z,0
2017-06-30T02:30:05.256Z,0
2017-06-30T02:30:26.576Z,0
2017-06-30T02:30:47.276Z,0
2017-06-30T02:31:07.930Z,0
2017-06-30T02:31:28.608Z,0
2017-06-30T02:31:49.285Z,0
2017-06-30T02:32:10.485Z,0
2017-06-30T02:32:31.154Z,0
2017-06-30T02:32:51.816Z,0
2017-06-30T02:33:12.975Z,0
2017-06-30T02:33:33.624Z,0
2017-06-30T02:33:54.329Z,0
2017-06-30T02:34:14.973Z,0
2017-06-30T02:34:35.614Z,0
2017-06-30T02:34:56.281Z,0
2017-06-30T02:35:16.937Z,0
2017-06-30T02:35:37.601Z,0
2017-06-30T02:35:58.288Z,0
2017-06-30T02:36:18.941Z,0
2017-06-30T02:36:39.586Z,0
2017-06-30T02:37:00.243Z,0
2017-06-30T02:37:20.911Z,0
2017-06-30T02:37:41.567Z,0
2017-06-30T02:38:02.215Z,0
2017-06-30T02:38:22.862Z,0
2017-06-30T02:38:43.573Z,0
2017-06-30T02:39:04.259Z,0
2017-06-30T02:39:24.904Z,0
2017-06-30T02:39:45.564Z,0
2017-06-30T02:40:06.239Z,0
2017-06-30T02:40:27.581Z,0
2017-06-30T02:40:49.072Z,0
2017-06-30T02:41:10.583Z,0
2017-06-30T02:41:31.248Z,0
2017-06-30T02:41:51.888Z,0
2017-06-30T02:42:12.557Z,0
2017-06-30T02:42:33.221Z,0
2017-06-30T02:42:53.867Z,0
2017-06-30T02:43:15.039Z,0
2017-06-30T02:43:35.692Z,0
2017-06-30T02:43:56.338Z,0
2017-06-30T02:44:16.991Z,0
2017-06-30T02:44:37.679Z,0
2017-06-30T02:44:58.991Z,0
2017-06-30T02:45:19.656Z,0
2017-06-30T02:45:40.345Z,0
2017-06-30T02:46:01.008Z,0
2017-06-30T02:46:21.732Z,0
2017-06-30T02:46:42.417Z,0
2017-06-30T02:47:03.095Z,0
2017-06-30T02:47:24.568Z,0
2017-06-30T02:47:45.231Z,0
2017-06-30T02:48:05.880Z,0
2017-06-30T02:48:26.537Z,0
2017-06-30T02:48:47.216Z,0
2017-06-30T02:49:07.860Z,0
2017-06-30T02:49:29.994Z,0
2017-06-30T02:49:51.605Z,0
2017-06-30T02:50:12.263Z,0
2017-06-30T02:50:32.911Z,0
2017-06-30T02:50:53.544Z,0
2017-06-30T02:51:14.215Z,0
2017-06-30T02:51:34.865Z,0
2017-06-30T02:51:56.086Z,0
2017-06-30T02:52:17.552Z,0
2017-06-30T02:52:38.205Z,0
2017-06-30T02:52:58.854Z,0
2017-06-30T02:53:19.540Z,0
2017-06-30T02:53:40.264Z,0
2017-06-30T02:54:00.905Z,0
2017-06-30T02:54:21.565Z,0
2017-06-30T02:54:42.247Z,0
2017-06-30T02:55:02.893Z,0
2017-06-30T02:55:24.121Z,0
2017-06-30T02:55:44.769Z,0
2017-06-30T02:56:05.420Z,0
2017-06-30T02:56:26.076Z,0
2017-06-30T02:56:46.715Z,0
2017-06-30T02:57:07.360Z,0
2017-06-30T02:57:28.023Z,0
2017-06-30T02:57:48.676Z,0
2017-06-30T02:58:09.375Z,0
2017-06-30T02:58:31.004Z,0
2017-06-30T02:58:52.592Z,0
2017-06-30T02:59:13.272Z,0
2017-06-30T02:59:33.930Z,0
2017-06-30T02:59:54.579Z,0
2017-06-30T03:00:17.017Z,0
2017-06-30T03:00:37.655Z,0
2017-06-30T03:00:58.371Z,0
2017-06-30T03:01:19.032Z,0
2017-06-30T03:01:39.685Z,0
2017-06-30T03:02:00.324Z,0
2017-06-30T03:02:20.991Z,0
2017-06-30T03:02:41.630Z,0
2017-06-30T03:03:03.004Z,0
2017-06-30T03:03:23.670Z,5
2017-06-30T03:03:45.689Z,5
2017-06-30T03:04:06.345Z,5
2017-06-30T03:04:27.005Z,5
2017-06-30T03:04:47.643Z,5
2017-06-30T03:05:08.345Z,5
2017-06-30T03:05:29.043Z,5
2017-06-30T03:05:49.824Z,5
2017-06-30T03:06:10.495Z,5
2017-06-30T03:06:31.658Z,5
2017-06-30T03:06:52.431Z,5
2017-06-30T03:07:13.267Z,5
2017-06-30T03:07:33.941Z,5
2017-06-30T03:07:54.616Z,5
2017-06-30T03:08:15.278Z,5
2017-06-30T03:08:36.327Z,5
2017-06-30T03:08:57.694Z,5
2017-06-30T03:09:19.672Z,5
2017-06-30T03:09:40.440Z,5
2017-06-30T03:10:01.089Z,5
2017-06-30T03:10:23.515Z,5
2017-06-30T03:10:44.187Z,5
2017-06-30T03:11:04.866Z,5
2017-06-30T03:11:25.626Z,5
2017-06-30T03:11:46.461Z,5
2017-06-30T03:12:07.239Z,5
2017-06-30T03:12:27.959Z,5
2017-06-30T03:12:48.734Z,5
2017-06-30T03:13:09.478Z,5
2017-06-30T03:13:30.168Z,5
2017-06-30T03:13:50.913Z,5
2017-06-30T03:14:11.740Z,5
2017-06-30T03:14:32.526Z,5
2017-06-30T03:14:53.271Z,5
2017-06-30T03:15:14.075Z,5
2017-06-30T03:15:34.764Z,5
2017-06-30T03:15:55.488Z,5
2017-06-30T03:16:17.589Z,5
2017-06-30T03:16:38.257Z,5
2017-06-30T03:16:59.759Z,5
2017-06-30T03:17:22.210Z,5
2017-06-30T03:17:43.322Z,5
2017-06-30T03:18:04.650Z,5
2017-06-30T03:18:25.331Z,5
2017-06-30T03:18:46.127Z,5
2017-06-30T03:19:06.869Z,5
2017-06-30T03:19:27.581Z,5
2017-06-30T03:19:48.355Z,5
2017-06-30T03:20:09.595Z,5
2017-06-30T03:20:30.289Z,5
2017-06-30T03:20:51.562Z,5
2017-06-30T03:21:12.207Z,5
2017-06-30T03:21:32.897Z,5
2017-06-30T03:21:53.577Z,5
2017-06-30T03:22:14.321Z,5
2017-06-30T03:22:35.533Z,5
2017-06-30T03:22:56.171Z,5
2017-06-30T03:23:16.840Z,5
2017-06-30T03:23:37.963Z,5
2017-06-30T03:23:58.646Z,5
2017-06-30T03:24:20.104Z,10
2017-06-30T03:24:41.529Z,10
2017-06-30T03:25:02.181Z,10
2017-06-30T03:25:22.834Z,10
2017-06-30T03:25:43.508Z,10
2017-06-30T03:26:04.181Z,10
2017-06-30T03:26:24.835Z,10
2017-06-30T03:26:45.504Z,10
2017-06-30T03:27:06.247Z,10
2017-06-30T03:27:26.904Z,10
2017-06-30T03:27:47.570Z,10
2017-06-30T03:28:08.242Z,10
2017-06-30T03:28:28.923Z,10
2017-06-30T03:28:49.568Z,10
2017-06-30T03:29:10.209Z,10
2017-06-30T03:29:30.864Z,10
2017-06-30T03:29:52.545Z,10
2017-06-30T03:30:13.346Z,10
2017-06-30T03:30:34.028Z,10
2017-06-30T03:30:54.688Z,10
2017-06-30T03:31:15.377Z,10
2017-06-30T03:31:36.106Z,10
2017-06-30T03:31:56.812Z,10
2017-06-30T03:32:17.502Z,10
2017-06-30T03:32:38.177Z,10
2017-06-30T03:32:58.829Z,10
2017-06-30T03:33:19.497Z,10
2017-06-30T03:33:40.156Z,10
2017-06-30T03:34:00.933Z,10
2017-06-30T03:34:21.662Z,10
2017-06-30T03:34:43.118Z,10
2017-06-30T03:35:03.817Z,10
2017-06-30T03:35:24.513Z,10
2017-06-30T03:35:45.180Z,10
2017-06-30T03:36:05.841Z,10
2017-06-30T03:36:26.514Z,5
2017-06-30T03:36:47.201Z,5
2017-06-30T03:37:07.869Z,5
2017-06-30T03:37:28.564Z,5
2017-06-30T03:37:49.209Z,5
2017-06-30T03:38:09.843Z,5
2017-06-30T03:38:30.502Z,5
2017-06-30T03:38:51.195Z,10
2017-06-30T03:39:11.863Z,10
2017-06-30T03:39:32.593Z,10
2017-06-30T03:39:53.242Z,10
2017-06-30T03:40:14.024Z,10
2017-06-30T03:40:34.725Z,10
2017-06-30T03:40:55.448Z,10
2017-06-30T03:41:16.139Z,10
2017-06-30T03:41:36.856Z,10
2017-06-30T03:41:57.505Z,10
2017-06-30T03:42:18.173Z,10
2017-06-30T03:42:38.848Z,10
2017-06-30T03:42:59.590Z,10
2017-06-30T03:43:20.247Z,10
2017-06-30T03:43:40.932Z,10
2017-06-30T03:44:02.544Z,10
2017-06-30T03:44:23.187Z,10
2017-06-30T03:44:43.882Z,10
2017-06-30T03:45:04.526Z,10
2017-06-30T03:45:25.205Z,10
2017-06-30T03:45:45.903Z,10
2017-06-30T03:46:06.591Z,10
2017-06-30T03:46:27.241Z,10
2017-06-30T03:46:48.725Z,10
2017-06-30T03:47:10.060Z,10
2017-06-30T03:47:30.740Z,10
2017-06-30T03:47:51.427Z,10
2017-06-30T03:48:13.055Z,10
2017-06-30T03:48:33.741Z,10
2017-06-30T03:48:54.450Z,10
2017-06-30T03:49:15.118Z,10
2017-06-30T03:49:35.805Z,10
2017-06-30T03:49:57.143Z,10
2017-06-30T03:50:18.650Z,10
2017-06-30T03:50:39.314Z,10
2017-06-30T03:51:00.111Z,10
2017-06-30T03:51:20.766Z,10
2017-06-30T03:51:41.430Z,10
2017-06-30T03:52:02.145Z,10
2017-06-30T03:52:22.807Z,10
2017-06-30T03:52:45.040Z,10
2017-06-30T03:53:05.755Z,10
2017-06-30T03:53:26.443Z,10
2017-06-30T03:53:47.121Z,10
2017-06-30T03:54:07.766Z,10
2017-06-30T03:54:28.419Z,10
2017-06-30T03:54:49.639Z,10
2017-06-30T03:55:10.337Z,10
2017-06-30T03:55:30.998Z,10
2017-06-30T03:55:51.648Z,15
2017-06-30T03:56:12.337Z,15
2017-06-30T03:56:32.995Z,15
2017-06-30T03:56:53.662Z,15
2017-06-30T03:57:14.315Z,15
2017-06-30T03:57:34.959Z,15
2017-06-30T03:57:56.152Z,15
2017-06-30T03:58:17.545Z,15
2017-06-30T03:58:38.184Z,15
2017-06-30T03:58:58.838Z,15
2017-06-30T03:59:19.515Z,15
2017-06-30T03:59:41.179Z,15
2017-06-30T04:00:01.856Z,15
2017-06-30T04:00:23.046Z,15
2017-06-30T04:00:44.643Z,15
2017-06-30T04:01:05.305Z,15
2017-06-30T04:01:25.970Z,15
2017-06-30T04:01:47.160Z,15
2017-06-30T04:02:08.545Z,15
2017-06-30T04:02:29.193Z,15
2017-06-30T04:02:50.565Z,15
2017-06-30T04:03:11.235Z,15
2017-06-30T04:03:32.556Z,15
2017-06-30T04:03:53.224Z,15
2017-06-30T04:04:13.877Z,15
2017-06-30T04:04:34.592Z,15
2017-06-30T04:04:57.045Z,15
2017-06-30T04:05:17.704Z,15
2017-06-30T04:05:38.360Z,20
2017-06-30T04:05:59.044Z,20
2017-06-30T04:06:19.695Z,20
2017-06-30T04:06:40.456Z,20
2017-06-30T04:07:01.719Z,20
2017-06-30T04:07:22.399Z,20
2017-06-30T04:07:43.081Z,20
2017-06-30T04:08:03.787Z,20
2017-06-30T04:08:24.437Z,20
2017-06-30T04:08:45.081Z,20
2017-06-30T04:09:05.735Z,20
2017-06-30T04:09:27.055Z,20
2017-06-30T04:09:48.673Z,20
2017-06-30T04:10:10.155Z,20
2017-06-30T04:10:30.846Z,20
2017-06-30T04:10:51.488Z,20
2017-06-30T04:11:13.050Z,20
2017-06-30T04:11:34.554Z,20
2017-06-30T04:11:55.223Z,20
2017-06-30T04:12:15.896Z,20
2017-06-30T04:12:36.647Z,20
2017-06-30T04:12:58.133Z,20
2017-06-30T04:13:19.666Z,20
2017-06-30T04:13:40.331Z,20
2017-06-30T04:14:01.557Z,20
2017-06-30T04:14:23.132Z,20
2017-06-30T04:14:43.790Z,20
2017-06-30T04:15:05.188Z,20
2017-06-30T04:15:25.838Z,20
2017-06-30T04:15:46.483Z,20
2017-06-30T04:16:08.057Z,20
2017-06-30T04:16:28.796Z,20
2017-06-30T04:16:49.453Z,20
2017-06-30T04:17:10.146Z,20
2017-06-30T04:17:31.674Z,20
2017-06-30T04:17:54.142Z,20
2017-06-30T04:18:15.716Z,15
2017-06-30T04:18:37.073Z,15
2017-06-30T04:18:59.578Z,15
2017-06-30T04:19:20.236Z,15
2017-06-30T04:19:42.212Z,15
2017-06-30T04:20:02.879Z,15
2017-06-30T04:20:24.064Z,15
2017-06-30T04:20:44.730Z,15
2017-06-30T04:21:06.063Z,15
2017-06-30T04:21:27.663Z,15
2017-06-30T04:21:49.070Z,15
2017-06-30T04:22:10.655Z,10
2017-06-30T04:22:31.327Z,10
2017-06-30T04:22:51.979Z,10
2017-06-30T04:23:13.148Z,10
2017-06-30T04:23:34.641Z,10
2017-06-30T04:23:56.191Z,10
2017-06-30T04:24:16.887Z,10
2017-06-30T04:24:37.542Z,10
2017-06-30T04:24:58.224Z,10
2017-06-30T04:25:18.899Z,10
2017-06-30T04:25:40.065Z,10
2017-06-30T04:26:00.825Z,10
2017-06-30T04:26:21.512Z,10
2017-06-30T04:26:42.203Z,10
2017-06-30T04:27:03.671Z,10
2017-06-30T04:27:24.362Z,15
2017-06-30T04:27:45.077Z,15
2017-06-30T04:28:05.737Z,15
2017-06-30T04:28:26.396Z,15
2017-06-30T04:28:47.052Z,15
2017-06-30T04:29:08.716Z,15
2017-06-30T04:29:29.369Z,15
2017-06-30T04:29:50.058Z,15
2017-06-30T04:30:10.748Z,10
2017-06-30T04:30:31.454Z,10
2017-06-30T04:30:53.094Z,10
2017-06-30T04:31:14.636Z,10
2017-06-30T04:31:35.275Z,10
2017-06-30T04:31:55.965Z,10
2017-06-30T04:32:16.598Z,15
2017-06-30T04:32:37.309Z,15
2017-06-30T04:32:57.977Z,15
2017-06-30T04:33:18.655Z,15
2017-06-30T04:33:39.310Z,15
2017-06-30T04:33:59.957Z,15
2017-06-30T04:34:20.613Z,15
2017-06-30T04:34:41.275Z,15
2017-06-30T04:35:01.954Z,15
2017-06-30T04:35:23.561Z,15
2017-06-30T04:35:44.209Z,15
2017-06-30T04:36:05.589Z,20
2017-06-30T04:36:26.375Z,20
2017-06-30T04:36:47.573Z,20
2017-06-30T04:37:09.195Z,20
2017-06-30T04:37:29.865Z,20
2017-06-30T04:37:50.549Z,20
2017-06-30T04:38:11.235Z,20
2017-06-30T04:38:31.881Z,20
2017-06-30T04:38:52.531Z,20
2017-06-30T04:39:13.249Z,20
2017-06-30T04:39:34.674Z,20
2017-06-30T04:39:55.329Z,15
2017-06-30T04:40:15.982Z,15
2017-06-30T04:40:36.661Z,15
2017-06-30T04:40:57.321Z,15
2017-06-30T04:41:18.011Z,15
2017-06-30T04:41:40.078Z,15
2017-06-30T04:42:00.767Z,15
2017-06-30T04:42:23.083Z,15
2017-06-30T04:42:43.748Z,15
2017-06-30T04:43:04.409Z,15
2017-06-30T04:43:25.054Z,15
2017-06-30T04:43:45.705Z,15
2017-06-30T04:44:06.373Z,15
2017-06-30T04:44:27.032Z,15
2017-06-30T04:44:47.696Z,15
2017-06-30T04:45:08.339Z,15
2017-06-30T04:45:28.995Z,15
2017-06-30T04:45:50.578Z,15
2017-06-30T04:46:11.241Z,15
2017-06-30T04:46:32.690Z,15
2017-06-30T04:46:53.344Z,15
2017-06-30T04:47:14.653Z,15
2017-06-30T04:47:36.170Z,15
2017-06-30T04:47:57.764Z,15
2017-06-30T04:48:19.085Z,15
2017-06-30T04:48:39.746Z,15
2017-06-30T04:49:00.406Z,15
2017-06-30T04:49:21.087Z,15
2017-06-30T04:49:41.770Z,15
2017-06-30T04:50:03.158Z,15
2017-06-30T04:50:23.856Z,15
2017-06-30T04:50:44.536Z,15
2017-06-30T04:51:05.207Z,15
2017-06-30T04:51:25.870Z,20
2017-06-30T04:51:46.531Z,20
2017-06-30T04:52:07.241Z,20
2017-06-30T04:52:27.891Z,25
2017-06-30T04:52:48.552Z,25
2017-06-30T04:53:10.084Z,25
2017-06-30T04:53:30.826Z,30
2017-06-30T04:53:51.507Z,30
2017-06-30T04:54:13.082Z,30
2017-06-30T04:54:33.758Z,35
2017-06-30T04:54:54.427Z,35
2017-06-30T04:55:15.772Z,35
2017-06-30T04:55:36.427Z,35
2017-06-30T04:55:57.097Z,35
2017-06-30T04:56:17.757Z,35
2017-06-30T04:56:39.197Z,35
2017-06-30T04:56:59.944Z,35
2017-06-30T04:57:20.602Z,35
2017-06-30T04:57:41.262Z,35
2017-06-30T04:58:02.693Z,40
2017-06-30T04:58:23.384Z,40
2017-06-30T04:58:44.093Z,40
2017-06-30T04:59:04.746Z,40
2017-06-30T04:59:25.425Z,40
2017-06-30T04:59:47.671Z,45
2017-06-30T05:00:09.095Z,45
2017-06-30T05:00:29.953Z,45
2017-06-30T05:00:50.671Z,45
2017-06-30T05:01:11.332Z,45
2017-06-30T05:01:31.982Z,45
2017-06-30T05:01:52.636Z,45
2017-06-30T05:02:14.361Z,45
2017-06-30T05:02:35.053Z,45
2017-06-30T05:02:55.698Z,45
2017-06-30T05:03:16.340Z,45
2017-06-30T05:03:37.008Z,45
2017-06-30T05:03:57.703Z,45
2017-06-30T05:04:18.390Z,40
2017-06-30T05:04:39.073Z,40